sensor_id;sensor_type;location;lat;lon;timestamp;P1;durP1;ratioP1;P2;durP2;ratioP2
20421;SDS011;10370;53.102;18.034;2023-06-19T00:00:44;20.63;;;14.60;;
20421;SDS011;10370;53.102;18.034;2023-06-19T00:06:07;20.88;;;15.10;;
20421;SDS011;10370;53.102;18.034;2023-06-19T00:11:30;25.85;;;17.90;;
20421;SDS011;10370;53.102;18.034;2023-06-19T00:16:52;25.98;;;18.52;;
20421;SDS011;10370;53.102;18.034;2023-06-19T00:22:15;20.55;;;15.43;;
20421;SDS011;10370;53.102;18.034;2023-06-19T00:27:38;16.00;;;12.95;;
20421;SDS011;10370;53.102;18.034;2023-06-19T00:33:00;16.77;;;13.60;;
20421;SDS011;10370;53.102;18.034;2023-06-19T00:38:25;14.98;;;11.80;;
20421;SDS011;10370;53.102;18.034;2023-06-19T00:43:47;16.02;;;11.75;;
20421;SDS011;10370;53.102;18.034;2023-06-19T00:49:10;19.17;;;12.63;;
20421;SDS011;10370;53.102;18.034;2023-06-19T00:54:33;17.10;;;13.10;;
20421;SDS011;10370;53.102;18.034;2023-06-19T00:59:56;18.40;;;13.60;;
20421;SDS011;10370;53.102;18.034;2023-06-19T01:05:19;21.85;;;14.70;;
20421;SDS011;10370;53.102;18.034;2023-06-19T01:10:43;24.50;;;17.38;;
20421;SDS011;10370;53.102;18.034;2023-06-19T01:16:10;23.98;;;18.00;;
20421;SDS011;10370;53.102;18.034;2023-06-19T01:21:34;27.58;;;18.35;;
20421;SDS011;10370;53.102;18.034;2023-06-19T01:26:57;27.05;;;19.17;;
20421;SDS011;10370;53.102;18.034;2023-06-19T01:32:22;26.38;;;18.85;;
20421;SDS011;10370;53.102;18.034;2023-06-19T01:37:50;25.77;;;18.42;;
20421;SDS011;10370;53.102;18.034;2023-06-19T01:43:14;26.17;;;17.08;;
20421;SDS011;10370;53.102;18.034;2023-06-19T01:48:39;25.35;;;18.58;;
20421;SDS011;10370;53.102;18.034;2023-06-19T01:54:01;26.65;;;16.30;;
20421;SDS011;10370;53.102;18.034;2023-06-19T01:59:26;25.08;;;17.27;;
20421;SDS011;10370;53.102;18.034;2023-06-19T02:04:49;24.00;;;17.38;;
20421;SDS011;10370;53.102;18.034;2023-06-19T02:10:11;25.98;;;16.98;;
20421;SDS011;10370;53.102;18.034;2023-06-19T02:15:34;22.70;;;16.13;;
20421;SDS011;10370;53.102;18.034;2023-06-19T02:20:56;23.35;;;16.13;;
20421;SDS011;10370;53.102;18.034;2023-06-19T02:26:19;22.58;;;16.05;;
20421;SDS011;10370;53.102;18.034;2023-06-19T02:31:42;21.48;;;16.20;;
20421;SDS011;10370;53.102;18.034;2023-06-19T02:37:05;21.15;;;15.75;;
20421;SDS011;10370;53.102;18.034;2023-06-19T02:42:27;16.27;;;12.02;;
20421;SDS011;10370;53.102;18.034;2023-06-19T02:47:50;13.75;;;11.00;;
20421;SDS011;10370;53.102;18.034;2023-06-19T02:53:13;13.63;;;11.10;;
20421;SDS011;10370;53.102;18.034;2023-06-19T02:58:38;14.07;;;11.68;;
20421;SDS011;10370;53.102;18.034;2023-06-19T03:04:01;10.38;;;8.48;;
20421;SDS011;10370;53.102;18.034;2023-06-19T03:09:23;15.63;;;10.45;;
20421;SDS011;10370;53.102;18.034;2023-06-19T03:14:46;14.35;;;11.18;;
20421;SDS011;10370;53.102;18.034;2023-06-19T03:20:09;23.63;;;16.92;;
20421;SDS011;10370;53.102;18.034;2023-06-19T03:25:33;23.02;;;15.73;;
20421;SDS011;10370;53.102;18.034;2023-06-19T03:30:59;26.52;;;16.50;;
20421;SDS011;10370;53.102;18.034;2023-06-19T03:36:22;25.83;;;17.45;;
20421;SDS011;10370;53.102;18.034;2023-06-19T03:41:45;24.33;;;17.05;;
20421;SDS011;10370;53.102;18.034;2023-06-19T03:47:07;29.38;;;20.52;;
20421;SDS011;10370;53.102;18.034;2023-06-19T03:52:30;29.63;;;19.83;;
20421;SDS011;10370;53.102;18.034;2023-06-19T03:57:53;30.10;;;20.05;;
20421;SDS011;10370;53.102;18.034;2023-06-19T04:03:15;29.00;;;20.00;;
20421;SDS011;10370;53.102;18.034;2023-06-19T04:08:38;25.10;;;19.50;;
20421;SDS011;10370;53.102;18.034;2023-06-19T04:14:01;31.58;;;21.23;;
20421;SDS011;10370;53.102;18.034;2023-06-19T04:19:23;30.58;;;23.02;;
20421;SDS011;10370;53.102;18.034;2023-06-19T04:24:46;34.20;;;24.33;;
20421;SDS011;10370;53.102;18.034;2023-06-19T04:30:09;35.58;;;25.77;;
20421;SDS011;10370;53.102;18.034;2023-06-19T04:35:32;36.42;;;27.38;;
20421;SDS011;10370;53.102;18.034;2023-06-19T04:41:02;34.53;;;25.63;;
20421;SDS011;10370;53.102;18.034;2023-06-19T04:46:24;34.95;;;27.00;;
20421;SDS011;10370;53.102;18.034;2023-06-19T04:51:47;31.73;;;25.42;;
20421;SDS011;10370;53.102;18.034;2023-06-19T04:57:10;28.25;;;23.85;;
20421;SDS011;10370;53.102;18.034;2023-06-19T05:02:33;28.25;;;21.77;;
20421;SDS011;10370;53.102;18.034;2023-06-19T05:07:56;23.35;;;20.83;;
20421;SDS011;10370;53.102;18.034;2023-06-19T05:13:19;21.80;;;19.50;;
20421;SDS011;10370;53.102;18.034;2023-06-19T05:18:42;19.60;;;17.60;;
20421;SDS011;10370;53.102;18.034;2023-06-19T05:24:05;17.77;;;16.02;;
20421;SDS011;10370;53.102;18.034;2023-06-19T05:29:28;17.73;;;15.90;;
20421;SDS011;10370;53.102;18.034;2023-06-19T05:34:53;18.10;;;16.30;;
20421;SDS011;10370;53.102;18.034;2023-06-19T05:40:15;16.00;;;14.60;;
20421;SDS011;10370;53.102;18.034;2023-06-19T05:45:38;16.05;;;14.60;;
20421;SDS011;10370;53.102;18.034;2023-06-19T05:51:00;14.50;;;13.13;;
20421;SDS011;10370;53.102;18.034;2023-06-19T05:56:23;14.48;;;13.15;;
20421;SDS011;10370;53.102;18.034;2023-06-19T06:01:45;14.20;;;12.90;;
20421;SDS011;10370;53.102;18.034;2023-06-19T06:07:08;13.75;;;12.35;;
20421;SDS011;10370;53.102;18.034;2023-06-19T06:12:34;13.25;;;11.43;;
20421;SDS011;10370;53.102;18.034;2023-06-19T06:17:56;13.73;;;12.27;;
20421;SDS011;10370;53.102;18.034;2023-06-19T06:23:19;14.95;;;13.45;;
20421;SDS011;10370;53.102;18.034;2023-06-19T06:28:42;16.80;;;14.65;;
20421;SDS011;10370;53.102;18.034;2023-06-19T06:34:04;19.10;;;15.50;;
20421;SDS011;10370;53.102;18.034;2023-06-19T06:39:27;14.65;;;13.10;;
20421;SDS011;10370;53.102;18.034;2023-06-19T06:44:50;17.83;;;12.75;;
20421;SDS011;10370;53.102;18.034;2023-06-19T06:50:13;17.38;;;13.57;;
20421;SDS011;10370;53.102;18.034;2023-06-19T06:55:36;12.85;;;10.50;;
20421;SDS011;10370;53.102;18.034;2023-06-19T07:00:58;12.35;;;8.95;;
20421;SDS011;10370;53.102;18.034;2023-06-19T07:06:21;10.38;;;8.07;;
20421;SDS011;10370;53.102;18.034;2023-06-19T07:11:44;12.05;;;8.45;;
20421;SDS011;10370;53.102;18.034;2023-06-19T07:17:06;10.52;;;9.13;;
20421;SDS011;10370;53.102;18.034;2023-06-19T07:22:29;11.35;;;9.70;;
20421;SDS011;10370;53.102;18.034;2023-06-19T07:27:52;11.57;;;9.75;;
20421;SDS011;10370;53.102;18.034;2023-06-19T07:33:15;11.63;;;10.30;;
20421;SDS011;10370;53.102;18.034;2023-06-19T07:38:38;14.05;;;10.80;;
20421;SDS011;10370;53.102;18.034;2023-06-19T07:44:00;14.65;;;11.95;;
20421;SDS011;10370;53.102;18.034;2023-06-19T07:49:23;13.82;;;11.68;;
20421;SDS011;10370;53.102;18.034;2023-06-19T07:54:55;16.15;;;12.70;;
20421;SDS011;10370;53.102;18.034;2023-06-19T08:00:19;17.63;;;12.90;;
20421;SDS011;10370;53.102;18.034;2023-06-19T08:05:41;16.08;;;12.77;;
20421;SDS011;10370;53.102;18.034;2023-06-19T08:11:04;14.70;;;12.95;;
20421;SDS011;10370;53.102;18.034;2023-06-19T08:16:27;14.35;;;12.85;;
20421;SDS011;10370;53.102;18.034;2023-06-19T08:21:49;15.52;;;13.13;;
20421;SDS011;10370;53.102;18.034;2023-06-19T08:27:12;16.73;;;14.40;;
20421;SDS011;10370;53.102;18.034;2023-06-19T08:32:35;17.17;;;13.70;;
20421;SDS011;10370;53.102;18.034;2023-06-19T08:37:57;16.27;;;13.60;;
20421;SDS011;10370;53.102;18.034;2023-06-19T08:43:20;18.65;;;12.30;;
20421;SDS011;10370;53.102;18.034;2023-06-19T08:48:43;12.40;;;11.10;;
20421;SDS011;10370;53.102;18.034;2023-06-19T08:54:07;12.60;;;11.18;;
20421;SDS011;10370;53.102;18.034;2023-06-19T08:59:30;12.23;;;10.93;;
20421;SDS011;10370;53.102;18.034;2023-06-19T09:04:56;13.52;;;11.57;;
20421;SDS011;10370;53.102;18.034;2023-06-19T09:10:18;12.40;;;11.10;;
20421;SDS011;10370;53.102;18.034;2023-06-19T09:15:41;14.10;;;11.98;;
20421;SDS011;10370;53.102;18.034;2023-06-19T09:21:04;15.38;;;11.15;;
20421;SDS011;10370;53.102;18.034;2023-06-19T09:26:26;12.57;;;10.90;;
20421;SDS011;10370;53.102;18.034;2023-06-19T09:31:49;14.40;;;10.77;;
20421;SDS011;10370;53.102;18.034;2023-06-19T09:37:12;13.38;;;10.93;;
20421;SDS011;10370;53.102;18.034;2023-06-19T09:42:36;12.50;;;10.30;;
20421;SDS011;10370;53.102;18.034;2023-06-19T09:48:01;11.05;;;7.68;;
20421;SDS011;10370;53.102;18.034;2023-06-19T09:53:25;9.52;;;7.18;;
20421;SDS011;10370;53.102;18.034;2023-06-19T09:58:49;11.65;;;8.52;;
20421;SDS011;10370;53.102;18.034;2023-06-19T10:04:13;9.48;;;7.85;;
20421;SDS011;10370;53.102;18.034;2023-06-19T10:09:35;10.75;;;8.77;;
20421;SDS011;10370;53.102;18.034;2023-06-19T10:14:58;11.60;;;8.48;;
20421;SDS011;10370;53.102;18.034;2023-06-19T10:20:43;11.52;;;8.55;;
20421;SDS011;10370;53.102;18.034;2023-06-19T10:26:08;11.15;;;8.93;;
20421;SDS011;10370;53.102;18.034;2023-06-19T10:31:37;9.50;;;8.50;;
20421;SDS011;10370;53.102;18.034;2023-06-19T10:37:00;9.75;;;8.00;;
20421;SDS011;10370;53.102;18.034;2023-06-19T10:42:23;10.63;;;8.45;;
20421;SDS011;10370;53.102;18.034;2023-06-19T10:47:46;11.27;;;8.45;;
20421;SDS011;10370;53.102;18.034;2023-06-19T10:53:08;10.27;;;8.40;;
20421;SDS011;10370;53.102;18.034;2023-06-19T10:58:31;9.55;;;8.40;;
20421;SDS011;10370;53.102;18.034;2023-06-19T11:03:54;13.20;;;9.13;;
20421;SDS011;10370;53.102;18.034;2023-06-19T11:09:16;9.40;;;8.40;;
20421;SDS011;10370;53.102;18.034;2023-06-19T11:14:41;10.80;;;9.00;;
20421;SDS011;10370;53.102;18.034;2023-06-19T11:20:08;9.30;;;8.23;;
20421;SDS011;10370;53.102;18.034;2023-06-19T11:25:38;10.07;;;8.60;;
20421;SDS011;10370;53.102;18.034;2023-06-19T11:31:02;9.85;;;8.60;;
20421;SDS011;10370;53.102;18.034;2023-06-19T11:36:25;10.52;;;9.05;;
20421;SDS011;10370;53.102;18.034;2023-06-19T11:41:48;9.80;;;8.65;;
20421;SDS011;10370;53.102;18.034;2023-06-19T11:47:12;9.57;;;8.13;;
20421;SDS011;10370;53.102;18.034;2023-06-19T11:52:35;10.43;;;8.77;;
20421;SDS011;10370;53.102;18.034;2023-06-19T11:57:57;9.07;;;8.10;;
20421;SDS011;10370;53.102;18.034;2023-06-19T12:03:20;11.80;;;8.45;;
20421;SDS011;10370;53.102;18.034;2023-06-19T12:08:43;11.55;;;8.85;;
20421;SDS011;10370;53.102;18.034;2023-06-19T12:14:06;9.95;;;8.27;;
20421;SDS011;10370;53.102;18.034;2023-06-19T12:19:29;9.05;;;8.15;;
20421;SDS011;10370;53.102;18.034;2023-06-19T12:24:51;10.48;;;8.27;;
20421;SDS011;10370;53.102;18.034;2023-06-19T12:30:14;10.85;;;8.23;;
20421;SDS011;10370;53.102;18.034;2023-06-19T12:35:40;11.13;;;8.63;;
20421;SDS011;10370;53.102;18.034;2023-06-19T12:41:03;11.52;;;8.48;;
20421;SDS011;10370;53.102;18.034;2023-06-19T12:46:26;9.13;;;8.15;;
20421;SDS011;10370;53.102;18.034;2023-06-19T12:51:48;10.55;;;8.07;;
20421;SDS011;10370;53.102;18.034;2023-06-19T12:57:13;9.90;;;8.90;;
20421;SDS011;10370;53.102;18.034;2023-06-19T13:02:36;11.25;;;8.95;;
20421;SDS011;10370;53.102;18.034;2023-06-19T13:07:59;10.52;;;8.10;;
20421;SDS011;10370;53.102;18.034;2023-06-19T13:13:22;10.23;;;8.88;;
20421;SDS011;10370;53.102;18.034;2023-06-19T13:18:44;9.68;;;8.40;;
20421;SDS011;10370;53.102;18.034;2023-06-19T13:24:08;10.50;;;8.27;;
20421;SDS011;10370;53.102;18.034;2023-06-19T13:29:30;12.13;;;8.90;;
20421;SDS011;10370;53.102;18.034;2023-06-19T13:34:53;11.32;;;8.55;;
20421;SDS011;10370;53.102;18.034;2023-06-19T13:40:17;10.25;;;8.50;;
20421;SDS011;10370;53.102;18.034;2023-06-19T13:45:39;9.23;;;8.30;;
20421;SDS011;10370;53.102;18.034;2023-06-19T13:51:02;11.02;;;8.82;;
20421;SDS011;10370;53.102;18.034;2023-06-19T13:56:25;9.13;;;8.23;;
20421;SDS011;10370;53.102;18.034;2023-06-19T14:01:48;12.40;;;8.15;;
20421;SDS011;10370;53.102;18.034;2023-06-19T14:07:10;9.80;;;7.85;;
20421;SDS011;10370;53.102;18.034;2023-06-19T14:12:33;9.75;;;8.20;;
20421;SDS011;10370;53.102;18.034;2023-06-19T14:17:55;9.25;;;8.23;;
20421;SDS011;10370;53.102;18.034;2023-06-19T14:23:18;9.35;;;7.93;;
20421;SDS011;10370;53.102;18.034;2023-06-19T14:28:41;10.73;;;8.60;;
20421;SDS011;10370;53.102;18.034;2023-06-19T14:34:03;9.40;;;8.20;;
20421;SDS011;10370;53.102;18.034;2023-06-19T14:39:26;10.30;;;8.27;;
20421;SDS011;10370;53.102;18.034;2023-06-19T14:44:48;8.63;;;7.78;;
20421;SDS011;10370;53.102;18.034;2023-06-19T14:50:11;9.45;;;8.30;;
20421;SDS011;10370;53.102;18.034;2023-06-19T14:55:33;10.65;;;7.97;;
20421;SDS011;10370;53.102;18.034;2023-06-19T15:00:56;9.60;;;7.88;;
20421;SDS011;10370;53.102;18.034;2023-06-19T15:06:20;8.52;;;7.63;;
20421;SDS011;10370;53.102;18.034;2023-06-19T15:11:42;9.23;;;8.27;;
20421;SDS011;10370;53.102;18.034;2023-06-19T15:17:05;8.98;;;8.07;;
20421;SDS011;10370;53.102;18.034;2023-06-19T15:22:28;9.43;;;8.45;;
20421;SDS011;10370;53.102;18.034;2023-06-19T15:27:50;10.10;;;8.02;;
20421;SDS011;10370;53.102;18.034;2023-06-19T15:33:13;11.85;;;8.50;;
20421;SDS011;10370;53.102;18.034;2023-06-19T15:38:39;8.63;;;7.72;;
20421;SDS011;10370;53.102;18.034;2023-06-19T15:44:02;11.45;;;8.18;;
20421;SDS011;10370;53.102;18.034;2023-06-19T15:49:24;10.05;;;8.82;;
20421;SDS011;10370;53.102;18.034;2023-06-19T15:54:47;10.70;;;8.70;;
20421;SDS011;10370;53.102;18.034;2023-06-19T16:00:10;9.95;;;8.27;;
20421;SDS011;10370;53.102;18.034;2023-06-19T16:05:34;10.88;;;8.60;;
20421;SDS011;10370;53.102;18.034;2023-06-19T16:10:57;13.02;;;8.75;;
20421;SDS011;10370;53.102;18.034;2023-06-19T16:16:19;10.73;;;8.75;;
20421;SDS011;10370;53.102;18.034;2023-06-19T16:21:42;10.52;;;9.13;;
20421;SDS011;10370;53.102;18.034;2023-06-19T16:27:05;9.48;;;8.32;;
20421;SDS011;10370;53.102;18.034;2023-06-19T16:32:28;10.90;;;8.13;;
20421;SDS011;10370;53.102;18.034;2023-06-19T16:37:51;10.82;;;8.77;;
20421;SDS011;10370;53.102;18.034;2023-06-19T16:43:18;10.70;;;8.90;;
20421;SDS011;10370;53.102;18.034;2023-06-19T16:48:40;13.65;;;9.07;;
20421;SDS011;10370;53.102;18.034;2023-06-19T16:54:03;10.10;;;9.00;;
20421;SDS011;10370;53.102;18.034;2023-06-19T16:59:26;11.68;;;8.90;;
20421;SDS011;10370;53.102;18.034;2023-06-19T17:04:49;16.65;;;9.35;;
20421;SDS011;10370;53.102;18.034;2023-06-19T17:10:11;10.15;;;8.82;;
20421;SDS011;10370;53.102;18.034;2023-06-19T17:15:36;14.77;;;9.27;;
20421;SDS011;10370;53.102;18.034;2023-06-19T17:20:59;16.75;;;10.02;;
20421;SDS011;10370;53.102;18.034;2023-06-19T17:26:23;10.88;;;9.65;;
20421;SDS011;10370;53.102;18.034;2023-06-19T17:31:45;18.15;;;10.52;;
20421;SDS011;10370;53.102;18.034;2023-06-19T17:37:08;18.50;;;11.20;;
20421;SDS011;10370;53.102;18.034;2023-06-19T17:42:31;12.82;;;9.80;;
20421;SDS011;10370;53.102;18.034;2023-06-19T17:47:54;15.05;;;10.45;;
20421;SDS011;10370;53.102;18.034;2023-06-19T17:53:16;14.10;;;9.93;;
20421;SDS011;10370;53.102;18.034;2023-06-19T17:58:39;13.93;;;10.15;;
20421;SDS011;10370;53.102;18.034;2023-06-19T18:04:02;12.23;;;9.82;;
20421;SDS011;10370;53.102;18.034;2023-06-19T18:09:25;11.00;;;9.75;;
20421;SDS011;10370;53.102;18.034;2023-06-19T18:14:48;15.10;;;10.23;;
20421;SDS011;10370;53.102;18.034;2023-06-19T18:20:11;16.20;;;11.07;;
20421;SDS011;10370;53.102;18.034;2023-06-19T18:25:34;27.08;;;12.85;;
20421;SDS011;10370;53.102;18.034;2023-06-19T18:30:56;32.38;;;13.65;;
20421;SDS011;10370;53.102;18.034;2023-06-19T18:36:19;36.35;;;14.15;;
20421;SDS011;10370;53.102;18.034;2023-06-19T18:41:42;30.30;;;13.73;;
20421;SDS011;10370;53.102;18.034;2023-06-19T18:47:05;37.03;;;15.80;;
20421;SDS011;10370;53.102;18.034;2023-06-19T18:52:28;36.40;;;18.63;;
20421;SDS011;10370;53.102;18.034;2023-06-19T18:57:51;30.58;;;19.25;;
20421;SDS011;10370;53.102;18.034;2023-06-19T19:03:14;35.22;;;19.63;;
20421;SDS011;10370;53.102;18.034;2023-06-19T19:08:36;31.90;;;19.05;;
20421;SDS011;10370;53.102;18.034;2023-06-19T19:13:59;41.88;;;23.90;;
20421;SDS011;10370;53.102;18.034;2023-06-19T19:19:22;41.42;;;20.90;;
20421;SDS011;10370;53.102;18.034;2023-06-19T19:24:44;37.50;;;22.05;;
20421;SDS011;10370;53.102;18.034;2023-06-19T19:30:07;32.33;;;19.80;;
20421;SDS011;10370;53.102;18.034;2023-06-19T19:35:30;33.55;;;19.08;;
20421;SDS011;10370;53.102;18.034;2023-06-19T19:40:53;27.27;;;18.25;;
20421;SDS011;10370;53.102;18.034;2023-06-19T19:46:16;30.58;;;19.15;;
20421;SDS011;10370;53.102;18.034;2023-06-19T19:51:38;38.95;;;20.92;;
20421;SDS011;10370;53.102;18.034;2023-06-19T19:57:01;32.38;;;19.65;;
20421;SDS011;10370;53.102;18.034;2023-06-19T20:02:24;35.80;;;21.52;;
20421;SDS011;10370;53.102;18.034;2023-06-19T20:07:47;32.92;;;20.30;;
20421;SDS011;10370;53.102;18.034;2023-06-19T20:13:10;33.70;;;21.13;;
20421;SDS011;10370;53.102;18.034;2023-06-19T20:18:34;31.10;;;20.15;;
20421;SDS011;10370;53.102;18.034;2023-06-19T20:23:57;30.15;;;20.10;;
20421;SDS011;10370;53.102;18.034;2023-06-19T20:29:19;27.63;;;19.60;;
20421;SDS011;10370;53.102;18.034;2023-06-19T20:34:42;33.05;;;20.58;;
20421;SDS011;10370;53.102;18.034;2023-06-19T20:40:05;27.48;;;20.33;;
20421;SDS011;10370;53.102;18.034;2023-06-19T20:45:30;39.15;;;21.13;;
20421;SDS011;10370;53.102;18.034;2023-06-19T20:50:53;33.67;;;21.95;;
20421;SDS011;10370;53.102;18.034;2023-06-19T20:56:16;37.28;;;21.30;;
20421;SDS011;10370;53.102;18.034;2023-06-19T21:01:39;37.60;;;20.98;;
20421;SDS011;10370;53.102;18.034;2023-06-19T21:07:02;30.20;;;20.50;;
20421;SDS011;10370;53.102;18.034;2023-06-19T21:12:25;30.38;;;21.33;;
20421;SDS011;10370;53.102;18.034;2023-06-19T21:17:48;30.55;;;21.63;;
20421;SDS011;10370;53.102;18.034;2023-06-19T21:23:11;29.35;;;20.50;;
20421;SDS011;10370;53.102;18.034;2023-06-19T21:28:33;31.20;;;20.40;;
20421;SDS011;10370;53.102;18.034;2023-06-19T21:33:56;36.08;;;21.63;;
20421;SDS011;10370;53.102;18.034;2023-06-19T21:39:19;36.08;;;21.17;;
20421;SDS011;10370;53.102;18.034;2023-06-19T21:44:42;27.73;;;20.45;;
20421;SDS011;10370;53.102;18.034;2023-06-19T21:50:05;31.63;;;20.50;;
20421;SDS011;10370;53.102;18.034;2023-06-19T21:55:28;25.52;;;19.55;;
20421;SDS011;10370;53.102;18.034;2023-06-19T22:00:51;28.25;;;20.08;;
20421;SDS011;10370;53.102;18.034;2023-06-19T22:06:14;31.23;;;20.38;;
20421;SDS011;10370;53.102;18.034;2023-06-19T22:11:37;28.38;;;20.83;;
20421;SDS011;10370;53.102;18.034;2023-06-19T22:17:00;30.52;;;23.63;;
20421;SDS011;10370;53.102;18.034;2023-06-19T22:22:28;32.40;;;24.10;;
20421;SDS011;10370;53.102;18.034;2023-06-19T22:27:51;28.85;;;22.75;;
20421;SDS011;10370;53.102;18.034;2023-06-19T22:33:16;34.42;;;21.58;;
20421;SDS011;10370;53.102;18.034;2023-06-19T22:38:38;27.60;;;21.50;;
20421;SDS011;10370;53.102;18.034;2023-06-19T22:44:01;33.63;;;22.65;;
20421;SDS011;10370;53.102;18.034;2023-06-19T22:49:24;36.20;;;21.83;;
20421;SDS011;10370;53.102;18.034;2023-06-19T22:54:51;31.95;;;21.65;;
20421;SDS011;10370;53.102;18.034;2023-06-19T23:00:14;29.08;;;21.42;;
20421;SDS011;10370;53.102;18.034;2023-06-19T23:05:36;35.15;;;21.13;;
20421;SDS011;10370;53.102;18.034;2023-06-19T23:10:59;36.10;;;23.95;;
20421;SDS011;10370;53.102;18.034;2023-06-19T23:16:22;33.38;;;24.08;;
20421;SDS011;10370;53.102;18.034;2023-06-19T23:21:44;38.05;;;24.02;;
20421;SDS011;10370;53.102;18.034;2023-06-19T23:27:08;37.25;;;24.40;;
20421;SDS011;10370;53.102;18.034;2023-06-19T23:32:31;36.95;;;25.67;;
20421;SDS011;10370;53.102;18.034;2023-06-19T23:37:54;37.40;;;26.23;;
20421;SDS011;10370;53.102;18.034;2023-06-19T23:43:18;38.15;;;25.17;;
20421;SDS011;10370;53.102;18.034;2023-06-19T23:48:40;33.03;;;25.42;;
20421;SDS011;10370;53.102;18.034;2023-06-19T23:54:03;37.92;;;25.13;;
20421;SDS011;10370;53.102;18.034;2023-06-19T23:59:26;33.85;;;25.55;;
